sensor_id;sensor_type;location;lat;lon;timestamp;temperature;humidity
67273;DHT22;54190;49.770;9.250;2023-05-09T00:00:14;14.60;99.90
67273;DHT22;54190;49.770;9.250;2023-05-09T00:02:41;14.60;99.90
67273;DHT22;54190;49.770;9.250;2023-05-09T00:05:10;14.60;99.90
67273;DHT22;54190;49.770;9.250;2023-05-09T00:07:36;14.60;99.90
67273;DHT22;54190;49.770;9.250;2023-05-09T00:10:03;14.50;99.90
67273;DHT22;54190;49.770;9.250;2023-05-09T00:12:29;14.60;99.90
67273;DHT22;54190;49.770;9.250;2023-05-09T00:14:54;14.60;99.90
67273;DHT22;54190;49.770;9.250;2023-05-09T00:17:25;14.60;99.90
67273;DHT22;54190;49.770;9.250;2023-05-09T00:19:51;14.50;99.90
67273;DHT22;54190;49.770;9.250;2023-05-09T00:22:19;14.50;99.90
67273;DHT22;54190;49.770;9.250;2023-05-09T00:24:48;14.60;99.90
67273;DHT22;54190;49.770;9.250;2023-05-09T00:27:14;14.60;99.90
67273;DHT22;54190;49.770;9.250;2023-05-09T00:29:41;14.60;99.90
67273;DHT22;54190;49.770;9.250;2023-05-09T00:32:06;14.60;99.90
67273;DHT22;54190;49.770;9.250;2023-05-09T00:34:32;14.50;99.90
67273;DHT22;54190;49.770;9.250;2023-05-09T00:36:58;14.50;99.90
67273;DHT22;54190;49.770;9.250;2023-05-09T00:39:23;14.50;99.90
67273;DHT22;54190;49.770;9.250;2023-05-09T00:41:50;14.40;99.90
67273;DHT22;54190;49.770;9.250;2023-05-09T00:44:16;14.40;99.90
67273;DHT22;54190;49.770;9.250;2023-05-09T00:46:42;14.40;99.90
67273;DHT22;54190;49.770;9.250;2023-05-09T00:49:08;14.40;99.90
67273;DHT22;54190;49.770;9.250;2023-05-09T00:51:35;14.40;99.90
67273;DHT22;54190;49.770;9.250;2023-05-09T00:54:01;14.30;99.90
67273;DHT22;54190;49.770;9.250;2023-05-09T00:56:27;14.30;99.90
67273;DHT22;54190;49.770;9.250;2023-05-09T00:58:53;14.40;99.90
67273;DHT22;54190;49.770;9.250;2023-05-09T01:01:20;14.30;99.90
67273;DHT22;54190;49.770;9.250;2023-05-09T01:03:46;14.30;99.90
67273;DHT22;54190;49.770;9.250;2023-05-09T01:09:03;14.30;99.90
67273;DHT22;54190;49.770;9.250;2023-05-09T01:11:41;14.30;99.90
67273;DHT22;54190;49.770;9.250;2023-05-09T01:17:07;14.30;99.90
67273;DHT22;54190;49.770;9.250;2023-05-09T01:22:28;14.30;99.90
67273;DHT22;54190;49.770;9.250;2023-05-09T01:28:13;14.30;99.90
67273;DHT22;54190;49.770;9.250;2023-05-09T01:30:44;14.30;99.90
67273;DHT22;54190;49.770;9.250;2023-05-09T01:33:15;14.30;99.90
67273;DHT22;54190;49.770;9.250;2023-05-09T01:35:45;14.30;99.90
67273;DHT22;54190;49.770;9.250;2023-05-09T01:38:16;14.20;99.90
67273;DHT22;54190;49.770;9.250;2023-05-09T01:40:44;14.20;99.90
67273;DHT22;54190;49.770;9.250;2023-05-09T01:43:13;14.20;99.90
67273;DHT22;54190;49.770;9.250;2023-05-09T01:45:42;14.20;99.90
67273;DHT22;54190;49.770;9.250;2023-05-09T01:48:09;14.20;99.90
67273;DHT22;54190;49.770;9.250;2023-05-09T01:50:35;14.20;99.90
67273;DHT22;54190;49.770;9.250;2023-05-09T01:53:02;14.20;99.90
67273;DHT22;54190;49.770;9.250;2023-05-09T01:55:32;14.20;99.90
67273;DHT22;54190;49.770;9.250;2023-05-09T01:57:58;14.20;99.90
67273;DHT22;54190;49.770;9.250;2023-05-09T02:00:26;14.20;99.90
67273;DHT22;54190;49.770;9.250;2023-05-09T02:02:53;14.20;99.90
67273;DHT22;54190;49.770;9.250;2023-05-09T02:05:20;14.20;99.90
67273;DHT22;54190;49.770;9.250;2023-05-09T02:07:47;14.10;99.90
67273;DHT22;54190;49.770;9.250;2023-05-09T02:10:14;14.10;99.90
67273;DHT22;54190;49.770;9.250;2023-05-09T02:12:40;14.10;99.90
67273;DHT22;54190;49.770;9.250;2023-05-09T02:15:06;14.00;99.90
67273;DHT22;54190;49.770;9.250;2023-05-09T02:17:33;14.00;99.90
67273;DHT22;54190;49.770;9.250;2023-05-09T02:19:59;14.00;99.90
67273;DHT22;54190;49.770;9.250;2023-05-09T02:22:25;14.00;99.90
67273;DHT22;54190;49.770;9.250;2023-05-09T02:24:51;14.00;99.90
67273;DHT22;54190;49.770;9.250;2023-05-09T02:27:17;14.00;99.90
67273;DHT22;54190;49.770;9.250;2023-05-09T02:29:47;14.00;99.90
67273;DHT22;54190;49.770;9.250;2023-05-09T02:32:15;14.00;99.90
67273;DHT22;54190;49.770;9.250;2023-05-09T02:34:44;14.00;99.90
67273;DHT22;54190;49.770;9.250;2023-05-09T02:37:10;14.00;99.90
67273;DHT22;54190;49.770;9.250;2023-05-09T02:39:37;14.00;99.90
67273;DHT22;54190;49.770;9.250;2023-05-09T02:42:08;14.00;99.90
67273;DHT22;54190;49.770;9.250;2023-05-09T02:44:34;14.00;99.90
67273;DHT22;54190;49.770;9.250;2023-05-09T02:47:01;14.00;99.90
67273;DHT22;54190;49.770;9.250;2023-05-09T02:49:27;14.00;99.90
67273;DHT22;54190;49.770;9.250;2023-05-09T02:51:53;13.90;99.90
67273;DHT22;54190;49.770;9.250;2023-05-09T02:54:19;13.90;99.90
67273;DHT22;54190;49.770;9.250;2023-05-09T02:56:44;13.90;99.90
67273;DHT22;54190;49.770;9.250;2023-05-09T02:59:10;13.90;99.90
67273;DHT22;54190;49.770;9.250;2023-05-09T03:01:36;13.90;99.90
67273;DHT22;54190;49.770;9.250;2023-05-09T03:04:02;13.90;99.90
67273;DHT22;54190;49.770;9.250;2023-05-09T03:06:27;13.90;99.90
67273;DHT22;54190;49.770;9.250;2023-05-09T03:08:53;13.90;99.90
67273;DHT22;54190;49.770;9.250;2023-05-09T03:11:21;13.90;99.90
67273;DHT22;54190;49.770;9.250;2023-05-09T03:13:47;13.90;99.90
67273;DHT22;54190;49.770;9.250;2023-05-09T03:16:17;13.90;99.90
67273;DHT22;54190;49.770;9.250;2023-05-09T03:18:43;13.90;99.90
67273;DHT22;54190;49.770;9.250;2023-05-09T03:21:09;13.90;99.90
67273;DHT22;54190;49.770;9.250;2023-05-09T03:23:36;13.90;99.90
67273;DHT22;54190;49.770;9.250;2023-05-09T03:26:02;13.80;99.90
67273;DHT22;54190;49.770;9.250;2023-05-09T03:28:28;13.80;99.90
67273;DHT22;54190;49.770;9.250;2023-05-09T03:30:57;13.80;99.90
67273;DHT22;54190;49.770;9.250;2023-05-09T03:33:25;13.80;99.90
67273;DHT22;54190;49.770;9.250;2023-05-09T03:35:51;13.80;99.90
67273;DHT22;54190;49.770;9.250;2023-05-09T03:38:17;13.70;99.90
67273;DHT22;54190;49.770;9.250;2023-05-09T03:40:43;13.80;99.90
67273;DHT22;54190;49.770;9.250;2023-05-09T03:43:10;13.60;99.90
67273;DHT22;54190;49.770;9.250;2023-05-09T03:45:36;13.60;99.90
67273;DHT22;54190;49.770;9.250;2023-05-09T03:48:03;13.60;99.90
67273;DHT22;54190;49.770;9.250;2023-05-09T03:50:36;13.60;99.90
67273;DHT22;54190;49.770;9.250;2023-05-09T03:53:02;13.50;99.90
67273;DHT22;54190;49.770;9.250;2023-05-09T03:55:28;13.50;99.90
67273;DHT22;54190;49.770;9.250;2023-05-09T03:57:55;13.40;99.90
67273;DHT22;54190;49.770;9.250;2023-05-09T04:00:21;13.40;99.90
67273;DHT22;54190;49.770;9.250;2023-05-09T04:02:57;13.30;99.90
67273;DHT22;54190;49.770;9.250;2023-05-09T04:05:34;13.30;99.90
67273;DHT22;54190;49.770;9.250;2023-05-09T04:08:01;13.30;99.90
67273;DHT22;54190;49.770;9.250;2023-05-09T04:10:29;13.30;99.90
67273;DHT22;54190;49.770;9.250;2023-05-09T04:12:55;13.30;99.90
67273;DHT22;54190;49.770;9.250;2023-05-09T04:15:21;13.30;99.90
67273;DHT22;54190;49.770;9.250;2023-05-09T04:17:47;13.30;99.90
67273;DHT22;54190;49.770;9.250;2023-05-09T04:20:13;13.30;99.90
67273;DHT22;54190;49.770;9.250;2023-05-09T04:22:41;13.30;99.90
67273;DHT22;54190;49.770;9.250;2023-05-09T04:25:07;13.40;99.90
67273;DHT22;54190;49.770;9.250;2023-05-09T04:27:36;13.30;99.90
67273;DHT22;54190;49.770;9.250;2023-05-09T04:30:02;13.30;99.90
67273;DHT22;54190;49.770;9.250;2023-05-09T04:32:28;13.30;99.90
67273;DHT22;54190;49.770;9.250;2023-05-09T04:34:54;13.30;99.90
67273;DHT22;54190;49.770;9.250;2023-05-09T04:37:24;13.30;99.90
67273;DHT22;54190;49.770;9.250;2023-05-09T04:39:50;13.30;99.90
67273;DHT22;54190;49.770;9.250;2023-05-09T04:42:25;13.30;99.90
67273;DHT22;54190;49.770;9.250;2023-05-09T04:44:51;13.30;99.90
67273;DHT22;54190;49.770;9.250;2023-05-09T04:47:17;13.30;99.90
67273;DHT22;54190;49.770;9.250;2023-05-09T04:49:42;13.30;99.90
67273;DHT22;54190;49.770;9.250;2023-05-09T04:52:08;13.30;99.90
67273;DHT22;54190;49.770;9.250;2023-05-09T04:54:33;13.30;99.90
67273;DHT22;54190;49.770;9.250;2023-05-09T04:56:59;13.30;99.90
67273;DHT22;54190;49.770;9.250;2023-05-09T04:59:25;13.30;99.90
67273;DHT22;54190;49.770;9.250;2023-05-09T05:01:51;13.40;99.90
67273;DHT22;54190;49.770;9.250;2023-05-09T05:04:18;13.40;99.90
67273;DHT22;54190;49.770;9.250;2023-05-09T05:06:45;13.50;99.90
67273;DHT22;54190;49.770;9.250;2023-05-09T05:09:11;13.50;99.90
67273;DHT22;54190;49.770;9.250;2023-05-09T05:11:37;13.50;99.90
67273;DHT22;54190;49.770;9.250;2023-05-09T05:14:03;13.50;99.90
67273;DHT22;54190;49.770;9.250;2023-05-09T05:16:29;13.60;99.90
67273;DHT22;54190;49.770;9.250;2023-05-09T05:18:55;13.60;99.90
67273;DHT22;54190;49.770;9.250;2023-05-09T05:21:21;13.60;99.90
67273;DHT22;54190;49.770;9.250;2023-05-09T05:23:47;13.70;99.90
67273;DHT22;54190;49.770;9.250;2023-05-09T05:26:14;13.70;99.90
67273;DHT22;54190;49.770;9.250;2023-05-09T05:28:39;13.70;99.90
67273;DHT22;54190;49.770;9.250;2023-05-09T05:31:05;13.70;99.90
67273;DHT22;54190;49.770;9.250;2023-05-09T05:33:31;13.70;99.90
67273;DHT22;54190;49.770;9.250;2023-05-09T05:35:57;13.70;99.90
67273;DHT22;54190;49.770;9.250;2023-05-09T05:38:23;13.70;99.90
67273;DHT22;54190;49.770;9.250;2023-05-09T05:40:52;13.70;99.90
67273;DHT22;54190;49.770;9.250;2023-05-09T05:43:19;13.70;99.90
67273;DHT22;54190;49.770;9.250;2023-05-09T05:45:44;13.70;99.90
67273;DHT22;54190;49.770;9.250;2023-05-09T05:48:15;13.70;99.90
67273;DHT22;54190;49.770;9.250;2023-05-09T05:50:40;13.80;99.90
67273;DHT22;54190;49.770;9.250;2023-05-09T05:53:06;13.80;99.90
67273;DHT22;54190;49.770;9.250;2023-05-09T05:55:32;13.80;99.90
67273;DHT22;54190;49.770;9.250;2023-05-09T05:57:58;13.90;99.90
67273;DHT22;54190;49.770;9.250;2023-05-09T06:00:24;13.90;99.90
67273;DHT22;54190;49.770;9.250;2023-05-09T06:02:57;13.90;99.90
67273;DHT22;54190;49.770;9.250;2023-05-09T06:05:29;14.00;99.90
67273;DHT22;54190;49.770;9.250;2023-05-09T06:07:54;14.00;99.90
67273;DHT22;54190;49.770;9.250;2023-05-09T06:10:20;14.10;99.90
67273;DHT22;54190;49.770;9.250;2023-05-09T06:12:45;14.20;99.90
67273;DHT22;54190;49.770;9.250;2023-05-09T06:15:11;14.30;99.90
67273;DHT22;54190;49.770;9.250;2023-05-09T06:17:40;14.30;99.90
67273;DHT22;54190;49.770;9.250;2023-05-09T06:20:06;14.40;99.90
67273;DHT22;54190;49.770;9.250;2023-05-09T06:22:31;14.50;99.90
67273;DHT22;54190;49.770;9.250;2023-05-09T06:24:57;14.50;99.90
67273;DHT22;54190;49.770;9.250;2023-05-09T06:27:23;14.60;99.90
67273;DHT22;54190;49.770;9.250;2023-05-09T06:29:49;14.60;99.90
67273;DHT22;54190;49.770;9.250;2023-05-09T06:32:14;14.60;99.90
67273;DHT22;54190;49.770;9.250;2023-05-09T06:34:42;14.60;99.90
67273;DHT22;54190;49.770;9.250;2023-05-09T06:37:08;14.70;99.90
67273;DHT22;54190;49.770;9.250;2023-05-09T06:39:34;14.70;99.90
67273;DHT22;54190;49.770;9.250;2023-05-09T06:41:59;14.80;99.90
67273;DHT22;54190;49.770;9.250;2023-05-09T06:44:30;14.80;99.90
67273;DHT22;54190;49.770;9.250;2023-05-09T06:46:57;14.90;99.90
67273;DHT22;54190;49.770;9.250;2023-05-09T06:49:22;15.00;99.90
67273;DHT22;54190;49.770;9.250;2023-05-09T06:51:48;15.00;99.90
67273;DHT22;54190;49.770;9.250;2023-05-09T06:54:13;15.10;99.90
67273;DHT22;54190;49.770;9.250;2023-05-09T06:56:39;15.10;99.90
67273;DHT22;54190;49.770;9.250;2023-05-09T06:59:05;15.20;99.90
67273;DHT22;54190;49.770;9.250;2023-05-09T07:01:32;15.20;99.90
67273;DHT22;54190;49.770;9.250;2023-05-09T07:03:57;15.30;99.90
67273;DHT22;54190;49.770;9.250;2023-05-09T07:06:24;15.30;99.90
67273;DHT22;54190;49.770;9.250;2023-05-09T07:08:49;15.40;99.90
67273;DHT22;54190;49.770;9.250;2023-05-09T07:11:15;15.50;99.90
67273;DHT22;54190;49.770;9.250;2023-05-09T07:13:41;15.50;99.90
67273;DHT22;54190;49.770;9.250;2023-05-09T07:16:06;15.50;99.90
67273;DHT22;54190;49.770;9.250;2023-05-09T07:18:32;15.50;99.90
67273;DHT22;54190;49.770;9.250;2023-05-09T07:20:57;15.60;99.90
67273;DHT22;54190;49.770;9.250;2023-05-09T07:23:23;15.60;99.90
67273;DHT22;54190;49.770;9.250;2023-05-09T07:25:57;15.60;99.90
67273;DHT22;54190;49.770;9.250;2023-05-09T07:28:24;15.60;99.90
67273;DHT22;54190;49.770;9.250;2023-05-09T07:30:50;15.70;99.90
67273;DHT22;54190;49.770;9.250;2023-05-09T07:33:15;15.80;99.90
67273;DHT22;54190;49.770;9.250;2023-05-09T07:35:41;15.70;99.90
67273;DHT22;54190;49.770;9.250;2023-05-09T07:38:07;15.70;99.90
67273;DHT22;54190;49.770;9.250;2023-05-09T07:40:32;15.80;99.90
67273;DHT22;54190;49.770;9.250;2023-05-09T07:43:00;15.80;99.90
67273;DHT22;54190;49.770;9.250;2023-05-09T07:45:26;15.80;99.90
67273;DHT22;54190;49.770;9.250;2023-05-09T07:47:52;15.80;99.90
67273;DHT22;54190;49.770;9.250;2023-05-09T07:50:17;15.90;99.90
67273;DHT22;54190;49.770;9.250;2023-05-09T07:52:43;15.90;99.90
67273;DHT22;54190;49.770;9.250;2023-05-09T07:55:09;16.00;99.90
67273;DHT22;54190;49.770;9.250;2023-05-09T07:57:37;16.00;99.90
67273;DHT22;54190;49.770;9.250;2023-05-09T08:00:04;16.00;99.90
67273;DHT22;54190;49.770;9.250;2023-05-09T08:02:38;16.10;99.90
67273;DHT22;54190;49.770;9.250;2023-05-09T08:05:05;16.20;99.90
67273;DHT22;54190;49.770;9.250;2023-05-09T08:07:30;16.20;99.90
67273;DHT22;54190;49.770;9.250;2023-05-09T08:09:56;16.40;99.90
67273;DHT22;54190;49.770;9.250;2023-05-09T08:12:22;16.40;99.90
67273;DHT22;54190;49.770;9.250;2023-05-09T08:14:47;16.40;99.90
67273;DHT22;54190;49.770;9.250;2023-05-09T08:17:13;16.40;99.90
67273;DHT22;54190;49.770;9.250;2023-05-09T08:19:38;16.40;99.90
67273;DHT22;54190;49.770;9.250;2023-05-09T08:22:04;16.50;99.90
67273;DHT22;54190;49.770;9.250;2023-05-09T08:24:30;16.60;99.90
67273;DHT22;54190;49.770;9.250;2023-05-09T08:26:57;16.70;99.90
67273;DHT22;54190;49.770;9.250;2023-05-09T08:29:25;16.80;99.90
67273;DHT22;54190;49.770;9.250;2023-05-09T08:31:50;16.90;99.90
67273;DHT22;54190;49.770;9.250;2023-05-09T08:34:16;17.00;99.90
67273;DHT22;54190;49.770;9.250;2023-05-09T08:36:42;17.10;99.90
67273;DHT22;54190;49.770;9.250;2023-05-09T08:39:10;17.20;99.90
67273;DHT22;54190;49.770;9.250;2023-05-09T08:41:35;17.40;99.90
67273;DHT22;54190;49.770;9.250;2023-05-09T08:44:03;17.60;99.90
67273;DHT22;54190;49.770;9.250;2023-05-09T08:46:36;17.70;99.90
67273;DHT22;54190;49.770;9.250;2023-05-09T08:49:06;17.80;99.90
67273;DHT22;54190;49.770;9.250;2023-05-09T08:51:34;18.00;99.90
67273;DHT22;54190;49.770;9.250;2023-05-09T08:54:00;18.20;99.90
67273;DHT22;54190;49.770;9.250;2023-05-09T08:56:26;18.30;99.90
67273;DHT22;54190;49.770;9.250;2023-05-09T08:58:53;18.40;99.90
67273;DHT22;54190;49.770;9.250;2023-05-09T09:01:20;18.50;99.90
67273;DHT22;54190;49.770;9.250;2023-05-09T09:03:47;18.50;99.90
67273;DHT22;54190;49.770;9.250;2023-05-09T09:06:15;18.50;99.90
67273;DHT22;54190;49.770;9.250;2023-05-09T09:08:41;18.50;99.90
67273;DHT22;54190;49.770;9.250;2023-05-09T09:11:12;18.50;99.90
67273;DHT22;54190;49.770;9.250;2023-05-09T09:13:40;18.50;99.90
67273;DHT22;54190;49.770;9.250;2023-05-09T09:16:09;18.50;99.90
67273;DHT22;54190;49.770;9.250;2023-05-09T09:18:38;18.40;99.90
67273;DHT22;54190;49.770;9.250;2023-05-09T09:21:09;18.40;99.90
67273;DHT22;54190;49.770;9.250;2023-05-09T09:23:38;18.40;99.90
67273;DHT22;54190;49.770;9.250;2023-05-09T09:26:05;18.40;99.90
67273;DHT22;54190;49.770;9.250;2023-05-09T09:28:30;18.40;99.90
67273;DHT22;54190;49.770;9.250;2023-05-09T09:30:56;18.50;99.90
67273;DHT22;54190;49.770;9.250;2023-05-09T09:33:24;18.60;99.90
67273;DHT22;54190;49.770;9.250;2023-05-09T09:35:51;18.70;99.90
67273;DHT22;54190;49.770;9.250;2023-05-09T09:38:18;18.80;99.90
67273;DHT22;54190;49.770;9.250;2023-05-09T09:43:16;19.20;99.90
67273;DHT22;54190;49.770;9.250;2023-05-09T09:45:42;19.20;99.90
67273;DHT22;54190;49.770;9.250;2023-05-09T09:48:07;19.30;99.90
67273;DHT22;54190;49.770;9.250;2023-05-09T09:50:33;19.30;99.90
67273;DHT22;54190;49.770;9.250;2023-05-09T09:52:59;19.40;99.90
67273;DHT22;54190;49.770;9.250;2023-05-09T09:55:25;19.40;99.90
67273;DHT22;54190;49.770;9.250;2023-05-09T09:57:51;19.50;99.90
67273;DHT22;54190;49.770;9.250;2023-05-09T10:00:19;19.60;99.90
67273;DHT22;54190;49.770;9.250;2023-05-09T10:02:50;19.60;99.90
67273;DHT22;54190;49.770;9.250;2023-05-09T10:05:24;19.70;99.90
67273;DHT22;54190;49.770;9.250;2023-05-09T10:07:58;19.70;99.90
67273;DHT22;54190;49.770;9.250;2023-05-09T10:10:29;19.80;99.90
67273;DHT22;54190;49.770;9.250;2023-05-09T10:12:57;19.90;99.90
67273;DHT22;54190;49.770;9.250;2023-05-09T10:15:23;20.00;99.90
67273;DHT22;54190;49.770;9.250;2023-05-09T10:17:55;20.10;99.90
67273;DHT22;54190;49.770;9.250;2023-05-09T10:20:21;20.20;99.90
67273;DHT22;54190;49.770;9.250;2023-05-09T10:22:48;20.30;99.90
67273;DHT22;54190;49.770;9.250;2023-05-09T10:25:19;20.40;99.90
67273;DHT22;54190;49.770;9.250;2023-05-09T10:27:47;20.50;99.90
67273;DHT22;54190;49.770;9.250;2023-05-09T10:30:18;20.50;99.90
67273;DHT22;54190;49.770;9.250;2023-05-09T10:32:57;20.60;99.90
67273;DHT22;54190;49.770;9.250;2023-05-09T10:35:29;20.70;99.90
67273;DHT22;54190;49.770;9.250;2023-05-09T10:37:56;20.80;99.90
67273;DHT22;54190;49.770;9.250;2023-05-09T10:40:22;20.90;99.70
67273;DHT22;54190;49.770;9.250;2023-05-09T10:42:48;21.00;99.50
67273;DHT22;54190;49.770;9.250;2023-05-09T10:45:14;21.00;99.90
67273;DHT22;54190;49.770;9.250;2023-05-09T10:47:40;21.20;99.90
67273;DHT22;54190;49.770;9.250;2023-05-09T10:50:10;21.20;98.70
67273;DHT22;54190;49.770;9.250;2023-05-09T10:56:07;21.40;98.10
67273;DHT22;54190;49.770;9.250;2023-05-09T10:58:33;21.60;98.00
67273;DHT22;54190;49.770;9.250;2023-05-09T11:01:03;21.60;97.10
67273;DHT22;54190;49.770;9.250;2023-05-09T11:03:55;21.70;97.30
67273;DHT22;54190;49.770;9.250;2023-05-09T11:11:55;22.10;96.10
67273;DHT22;54190;49.770;9.250;2023-05-09T11:14:31;22.10;96.30
67273;DHT22;54190;49.770;9.250;2023-05-09T11:17:01;22.20;96.10
67273;DHT22;54190;49.770;9.250;2023-05-09T11:19:35;22.10;95.60
67273;DHT22;54190;49.770;9.250;2023-05-09T11:22:10;22.00;95.20
67273;DHT22;54190;49.770;9.250;2023-05-09T11:24:37;22.00;95.80
67273;DHT22;54190;49.770;9.250;2023-05-09T11:27:24;22.10;95.70
67273;DHT22;54190;49.770;9.250;2023-05-09T11:29:57;22.20;95.00
67273;DHT22;54190;49.770;9.250;2023-05-09T11:32:49;22.20;95.40
67273;DHT22;54190;49.770;9.250;2023-05-09T11:35:16;22.10;95.30
67273;DHT22;54190;49.770;9.250;2023-05-09T11:40:20;22.00;94.80
67273;DHT22;54190;49.770;9.250;2023-05-09T11:42:48;22.00;95.40
67273;DHT22;54190;49.770;9.250;2023-05-09T11:45:14;22.00;95.40
67273;DHT22;54190;49.770;9.250;2023-05-09T11:47:41;22.00;95.60
67273;DHT22;54190;49.770;9.250;2023-05-09T11:50:12;22.10;96.20
67273;DHT22;54190;49.770;9.250;2023-05-09T11:52:39;22.20;95.10
67273;DHT22;54190;49.770;9.250;2023-05-09T11:55:06;22.30;94.30
67273;DHT22;54190;49.770;9.250;2023-05-09T11:57:34;22.30;95.60
67273;DHT22;54190;49.770;9.250;2023-05-09T11:59:59;22.40;94.70
67273;DHT22;54190;49.770;9.250;2023-05-09T12:02:26;22.50;94.30
67273;DHT22;54190;49.770;9.250;2023-05-09T12:04:52;22.60;94.90
67273;DHT22;54190;49.770;9.250;2023-05-09T12:07:19;22.70;93.10
67273;DHT22;54190;49.770;9.250;2023-05-09T12:09:48;22.80;92.90
67273;DHT22;54190;49.770;9.250;2023-05-09T12:12:14;22.90;92.60
67273;DHT22;54190;49.770;9.250;2023-05-09T12:14:42;23.00;94.30
67273;DHT22;54190;49.770;9.250;2023-05-09T12:17:08;23.10;92.50
67273;DHT22;54190;49.770;9.250;2023-05-09T12:19:34;23.20;93.60
67273;DHT22;54190;49.770;9.250;2023-05-09T12:22:03;23.10;91.90
67273;DHT22;54190;49.770;9.250;2023-05-09T12:24:30;23.10;90.10
67273;DHT22;54190;49.770;9.250;2023-05-09T12:26:57;23.10;92.40
67273;DHT22;54190;49.770;9.250;2023-05-09T12:29:24;23.20;92.00
67273;DHT22;54190;49.770;9.250;2023-05-09T12:31:51;23.10;90.00
67273;DHT22;54190;49.770;9.250;2023-05-09T12:34:18;23.10;89.30
67273;DHT22;54190;49.770;9.250;2023-05-09T12:36:44;23.10;88.00
67273;DHT22;54190;49.770;9.250;2023-05-09T12:39:16;23.20;88.80
67273;DHT22;54190;49.770;9.250;2023-05-09T12:41:49;23.30;88.90
67273;DHT22;54190;49.770;9.250;2023-05-09T12:44:23;23.30;90.40
67273;DHT22;54190;49.770;9.250;2023-05-09T12:46:57;23.40;90.90
67273;DHT22;54190;49.770;9.250;2023-05-09T12:49:23;23.60;88.80
67273;DHT22;54190;49.770;9.250;2023-05-09T12:51:49;23.70;85.20
67273;DHT22;54190;49.770;9.250;2023-05-09T12:54:23;23.80;85.10
67273;DHT22;54190;49.770;9.250;2023-05-09T12:56:50;23.90;83.30
67273;DHT22;54190;49.770;9.250;2023-05-09T12:59:26;23.90;82.50
67273;DHT22;54190;49.770;9.250;2023-05-09T13:01:56;23.90;86.40
67273;DHT22;54190;49.770;9.250;2023-05-09T13:04:24;24.00;83.20
67273;DHT22;54190;49.770;9.250;2023-05-09T13:06:56;24.00;86.60
67273;DHT22;54190;49.770;9.250;2023-05-09T13:09:25;24.00;83.50
67273;DHT22;54190;49.770;9.250;2023-05-09T13:11:52;24.00;86.20
67273;DHT22;54190;49.770;9.250;2023-05-09T13:14:19;24.10;82.70
67273;DHT22;54190;49.770;9.250;2023-05-09T13:16:46;24.10;84.00
67273;DHT22;54190;49.770;9.250;2023-05-09T13:19:12;24.20;81.00
67273;DHT22;54190;49.770;9.250;2023-05-09T13:21:37;24.30;80.80
67273;DHT22;54190;49.770;9.250;2023-05-09T13:24:04;24.30;82.80
67273;DHT22;54190;49.770;9.250;2023-05-09T13:26:30;24.40;82.30
67273;DHT22;54190;49.770;9.250;2023-05-09T13:28:56;24.50;84.30
67273;DHT22;54190;49.770;9.250;2023-05-09T13:31:22;24.60;82.10
67273;DHT22;54190;49.770;9.250;2023-05-09T13:33:48;24.70;82.00
67273;DHT22;54190;49.770;9.250;2023-05-09T13:36:14;24.80;80.10
67273;DHT22;54190;49.770;9.250;2023-05-09T13:38:41;24.90;81.80
67273;DHT22;54190;49.770;9.250;2023-05-09T13:41:07;24.90;75.90
67273;DHT22;54190;49.770;9.250;2023-05-09T13:43:33;24.90;80.30
67273;DHT22;54190;49.770;9.250;2023-05-09T13:45:59;24.90;80.20
67273;DHT22;54190;49.770;9.250;2023-05-09T13:48:25;25.00;80.00
67273;DHT22;54190;49.770;9.250;2023-05-09T13:50:50;25.00;78.20
67273;DHT22;54190;49.770;9.250;2023-05-09T13:53:16;25.10;80.90
67273;DHT22;54190;49.770;9.250;2023-05-09T13:55:42;25.10;78.30
67273;DHT22;54190;49.770;9.250;2023-05-09T13:58:08;25.10;79.40
67273;DHT22;54190;49.770;9.250;2023-05-09T14:00:33;25.10;75.60
67273;DHT22;54190;49.770;9.250;2023-05-09T14:03:00;25.10;74.00
67273;DHT22;54190;49.770;9.250;2023-05-09T14:05:26;24.90;73.40
67273;DHT22;54190;49.770;9.250;2023-05-09T14:07:53;24.70;72.80
67273;DHT22;54190;49.770;9.250;2023-05-09T14:10:18;24.70;73.30
67273;DHT22;54190;49.770;9.250;2023-05-09T14:12:44;24.80;76.80
67273;DHT22;54190;49.770;9.250;2023-05-09T14:15:12;25.00;75.90
67273;DHT22;54190;49.770;9.250;2023-05-09T14:17:38;25.00;73.50
67273;DHT22;54190;49.770;9.250;2023-05-09T14:20:05;25.00;72.50
67273;DHT22;54190;49.770;9.250;2023-05-09T14:22:31;25.10;75.80
67273;DHT22;54190;49.770;9.250;2023-05-09T14:24:57;25.10;73.80
67273;DHT22;54190;49.770;9.250;2023-05-09T14:27:23;25.10;73.60
67273;DHT22;54190;49.770;9.250;2023-05-09T14:29:49;25.20;72.60
67273;DHT22;54190;49.770;9.250;2023-05-09T14:32:15;25.20;74.20
67273;DHT22;54190;49.770;9.250;2023-05-09T14:34:40;25.30;74.70
67273;DHT22;54190;49.770;9.250;2023-05-09T14:37:06;25.20;73.80
67273;DHT22;54190;49.770;9.250;2023-05-09T14:39:42;25.10;75.00
67273;DHT22;54190;49.770;9.250;2023-05-09T14:42:08;25.00;73.20
67273;DHT22;54190;49.770;9.250;2023-05-09T14:44:36;24.80;69.40
67273;DHT22;54190;49.770;9.250;2023-05-09T14:47:02;24.70;70.30
67273;DHT22;54190;49.770;9.250;2023-05-09T14:49:28;24.30;72.00
67273;DHT22;54190;49.770;9.250;2023-05-09T14:51:54;24.10;74.10
67273;DHT22;54190;49.770;9.250;2023-05-09T14:54:20;24.20;74.40
67273;DHT22;54190;49.770;9.250;2023-05-09T14:56:46;24.20;76.30
67273;DHT22;54190;49.770;9.250;2023-05-09T14:59:12;24.30;74.40
67273;DHT22;54190;49.770;9.250;2023-05-09T15:01:38;24.30;72.90
67273;DHT22;54190;49.770;9.250;2023-05-09T15:04:04;24.30;74.00
67273;DHT22;54190;49.770;9.250;2023-05-09T15:06:30;24.30;74.00
67273;DHT22;54190;49.770;9.250;2023-05-09T15:08:56;24.30;74.50
67273;DHT22;54190;49.770;9.250;2023-05-09T15:11:22;24.30;75.10
67273;DHT22;54190;49.770;9.250;2023-05-09T15:13:47;24.30;75.90
67273;DHT22;54190;49.770;9.250;2023-05-09T15:16:13;24.30;72.50
67273;DHT22;54190;49.770;9.250;2023-05-09T15:18:39;24.30;74.80
67273;DHT22;54190;49.770;9.250;2023-05-09T15:21:10;24.10;71.50
67273;DHT22;54190;49.770;9.250;2023-05-09T15:23:36;24.00;73.00
67273;DHT22;54190;49.770;9.250;2023-05-09T15:26:04;23.90;70.80
67273;DHT22;54190;49.770;9.250;2023-05-09T15:28:33;23.80;71.40
67273;DHT22;54190;49.770;9.250;2023-05-09T15:30:59;23.80;74.10
67273;DHT22;54190;49.770;9.250;2023-05-09T15:33:25;23.70;70.20
67273;DHT22;54190;49.770;9.250;2023-05-09T15:35:56;23.70;72.80
67273;DHT22;54190;49.770;9.250;2023-05-09T15:38:21;23.50;72.20
67273;DHT22;54190;49.770;9.250;2023-05-09T15:40:47;23.30;73.80
67273;DHT22;54190;49.770;9.250;2023-05-09T15:43:13;23.20;72.00
67273;DHT22;54190;49.770;9.250;2023-05-09T15:45:38;23.20;74.00
67273;DHT22;54190;49.770;9.250;2023-05-09T15:48:12;23.20;73.80
67273;DHT22;54190;49.770;9.250;2023-05-09T15:50:38;23.20;72.20
67273;DHT22;54190;49.770;9.250;2023-05-09T15:53:05;23.10;72.40
67273;DHT22;54190;49.770;9.250;2023-05-09T15:55:30;23.00;72.80